createdAt,value
2019-05-23T00:00:09.273Z,13.60
2019-05-23T00:03:00.613Z,13.60
2019-05-23T00:05:58.282Z,13.58
2019-05-23T00:08:51.278Z,13.61
2019-05-23T00:11:34.114Z,13.62
2019-05-23T00:14:20.776Z,13.60
2019-05-23T00:16:57.123Z,13.55
2019-05-23T00:19:33.387Z,13.43
2019-05-23T00:22:09.879Z,13.43
2019-05-23T00:24:43.876Z,13.44
2019-05-23T00:27:18.241Z,13.40
2019-05-23T00:29:53.599Z,13.47
2019-05-23T00:32:46.541Z,13.47
2019-05-23T00:35:22.103Z,13.44
2019-05-23T00:37:57.273Z,13.30
2019-05-23T00:40:31.714Z,13.34
2019-05-23T00:43:07.407Z,13.35
2019-05-23T00:45:42.273Z,13.36
2019-05-23T00:48:17.675Z,13.37
2019-05-23T00:50:53.220Z,13.30
2019-05-23T00:53:28.528Z,13.34
2019-05-23T00:56:02.942Z,13.37
2019-05-23T00:58:37.643Z,13.40
2019-05-23T01:01:13.942Z,13.40
2019-05-23T01:03:48.861Z,13.34
2019-05-23T01:06:22.290Z,13.31
2019-05-23T01:08:58.750Z,13.29
2019-05-23T01:11:33.780Z,13.29
2019-05-23T01:14:07.276Z,13.29
2019-05-23T01:16:42.288Z,13.31
2019-05-23T01:19:18.281Z,13.33
2019-05-23T01:22:05.350Z,13.34
2019-05-23T01:24:42.270Z,13.34
2019-05-23T01:27:17.506Z,13.28
2019-05-23T01:29:52.702Z,13.19
2019-05-23T01:32:42.315Z,13.16
2019-05-23T01:35:21.277Z,13.16
2019-05-23T01:37:57.282Z,13.15
2019-05-23T01:40:32.268Z,13.13
2019-05-23T01:43:08.304Z,13.09
2019-05-23T01:45:44.110Z,13.12
2019-05-23T01:48:20.104Z,13.04
2019-05-23T01:50:54.883Z,13.01
2019-05-23T01:53:30.117Z,13.01
2019-05-23T01:56:04.677Z,13.00
2019-05-23T01:58:40.284Z,12.97
2019-05-23T02:01:16.131Z,12.95
2019-05-23T02:03:51.264Z,12.93
2019-05-23T02:06:25.683Z,12.89
2019-05-23T02:08:58.998Z,12.92
2019-05-23T02:11:33.031Z,12.87
2019-05-23T02:14:08.303Z,12.97
2019-05-23T02:16:42.673Z,12.93
2019-05-23T02:19:18.431Z,12.93
2019-05-23T02:21:52.947Z,12.91
2019-05-23T02:24:28.135Z,12.95
2019-05-23T02:27:03.328Z,12.92
2019-05-23T02:29:37.775Z,12.92
2019-05-23T02:32:11.521Z,12.85
2019-05-23T02:34:46.348Z,12.90
2019-05-23T02:37:48.285Z,12.95
2019-05-23T02:40:30.311Z,12.96
2019-05-23T02:43:07.266Z,12.98
2019-05-23T02:45:48.301Z,13.02
2019-05-23T02:48:26.557Z,12.83
2019-05-23T02:51:05.289Z,12.76
2019-05-23T02:53:40.940Z,12.72
2019-05-23T02:56:18.349Z,12.78
2019-05-23T02:59:27.121Z,12.83
2019-05-23T03:02:55.382Z,12.85
2019-05-23T03:05:31.731Z,12.77
2019-05-23T03:08:09.143Z,12.72
2019-05-23T03:10:59.119Z,12.45
2019-05-23T03:13:36.507Z,12.45
2019-05-23T03:16:17.145Z,12.38
2019-05-23T03:19:00.286Z,12.37
2019-05-23T03:21:36.496Z,12.45
2019-05-23T03:24:11.291Z,12.49
2019-05-23T03:27:15.594Z,12.45
2019-05-23T03:29:50.332Z,12.45
2019-05-23T03:32:42.730Z,12.28
2019-05-23T03:35:24.948Z,12.28
2019-05-23T03:38:00.277Z,12.30
2019-05-23T03:40:35.670Z,12.30
2019-05-23T03:43:10.357Z,12.36
2019-05-23T03:45:54.663Z,12.45
2019-05-23T03:48:30.126Z,12.48
2019-05-23T03:51:05.410Z,12.55
2019-05-23T03:53:41.740Z,12.55
2019-05-23T03:56:16.284Z,12.64
2019-05-23T03:58:52.274Z,12.57
2019-05-23T04:01:46.119Z,12.63
2019-05-23T04:04:06.675Z,12.62
2019-05-23T04:06:41.345Z,12.62
2019-05-23T04:09:16.500Z,12.68
2019-05-23T04:11:51.274Z,12.76
2019-05-23T04:14:25.932Z,12.77
2019-05-23T04:17:00.310Z,12.79
2019-05-23T04:19:34.938Z,12.76
2019-05-23T04:22:10.286Z,12.80
2019-05-23T04:26:32.775Z,12.89
2019-05-23T04:29:06.470Z,12.88
2019-05-23T04:31:41.089Z,12.91
2019-05-23T04:34:15.643Z,12.87
2019-05-23T04:36:50.642Z,12.87
2019-05-23T04:39:25.269Z,12.89
2019-05-23T04:42:00.114Z,12.93
2019-05-23T04:44:35.478Z,13.01
2019-05-23T04:47:10.543Z,13.01
2019-05-23T04:49:45.409Z,13.07
2019-05-23T04:52:21.295Z,13.15
2019-05-23T04:54:55.906Z,13.15
2019-05-23T04:57:31.265Z,13.15
2019-05-23T05:00:08.068Z,13.22
2019-05-23T05:02:45.272Z,13.25
2019-05-23T05:05:20.813Z,13.32
2019-05-23T05:07:54.281Z,13.44
2019-05-23T05:10:29.637Z,13.59
2019-05-23T05:13:04.283Z,13.59
2019-05-23T05:15:38.757Z,13.57
2019-05-23T05:18:12.288Z,13.64
2019-05-23T05:20:46.941Z,13.76
2019-05-23T05:23:23.821Z,13.76
2019-05-23T05:25:57.041Z,13.91
2019-05-23T05:28:31.653Z,13.86
2019-05-23T05:31:06.672Z,13.97
2019-05-23T05:33:41.267Z,13.97
2019-05-23T05:36:15.927Z,13.96
2019-05-23T05:38:49.619Z,14.15
2019-05-23T05:41:24.277Z,14.33
2019-05-23T05:43:59.283Z,14.71
2019-05-23T05:46:34.301Z,14.71
2019-05-23T05:49:10.282Z,14.85
2019-05-23T05:51:45.276Z,14.96
2019-05-23T05:54:19.777Z,15.04
2019-05-23T05:56:52.875Z,15.01
2019-05-23T05:59:28.283Z,15.09
2019-05-23T06:02:04.633Z,15.18
2019-05-23T06:04:39.873Z,15.40
2019-05-23T06:07:31.289Z,15.38
2019-05-23T06:10:09.528Z,15.42
2019-05-23T06:12:44.282Z,15.46
2019-05-23T06:15:19.557Z,15.37
2019-05-23T06:17:54.180Z,15.37
2019-05-23T06:20:29.642Z,15.46
2019-05-23T06:23:05.786Z,15.52
2019-05-23T06:25:38.993Z,15.52
2019-05-23T06:28:12.273Z,15.55
2019-05-23T06:30:48.280Z,15.47
2019-05-23T06:33:24.504Z,15.47
2019-05-23T06:35:59.283Z,15.79
2019-05-23T06:38:34.433Z,16.00
2019-05-23T06:41:11.403Z,16.22
2019-05-23T06:43:45.942Z,16.18
2019-05-23T06:46:20.286Z,16.18
2019-05-23T06:48:54.875Z,16.34
2019-05-23T06:51:29.539Z,16.34
2019-05-23T06:54:05.348Z,16.51
2019-05-23T06:56:40.342Z,16.41
2019-05-23T06:59:15.942Z,16.21
2019-05-23T07:01:50.357Z,16.23
2019-05-23T07:04:25.274Z,16.31
2019-05-23T07:07:00.659Z,16.86
2019-05-23T07:09:35.338Z,17.17
2019-05-23T07:12:10.280Z,17.17
2019-05-23T07:14:45.281Z,17.23
2019-05-23T07:17:21.508Z,17.97
2019-05-23T07:19:56.263Z,17.97
2019-05-23T07:22:31.071Z,18.11
2019-05-23T07:25:07.275Z,18.36
2019-05-23T07:27:41.978Z,18.36
2019-05-23T07:30:22.879Z,18.44
2019-05-23T07:32:58.264Z,18.72
2019-05-23T07:35:33.111Z,19.21
2019-05-23T07:38:07.825Z,18.63
2019-05-23T07:40:41.088Z,19.10
2019-05-23T07:43:17.288Z,19.10
2019-05-23T07:45:55.745Z,19.76
2019-05-23T07:48:29.484Z,20.36
2019-05-23T07:51:04.288Z,20.88
2019-05-23T07:53:56.437Z,21.27
2019-05-23T07:56:33.457Z,21.27
2019-05-23T07:59:08.294Z,21.31
2019-05-23T08:01:47.389Z,20.66
2019-05-23T08:04:23.313Z,20.68
2019-05-23T08:06:59.687Z,20.56
2019-05-23T08:09:33.288Z,20.56
2019-05-23T08:12:07.975Z,19.70
2019-05-23T08:14:42.329Z,19.70
2019-05-23T08:17:18.135Z,19.96
2019-05-23T08:19:52.930Z,19.99
2019-05-23T08:22:27.873Z,19.99
2019-05-23T08:25:02.675Z,20.08
2019-05-23T08:27:35.865Z,19.77
2019-05-23T08:30:10.723Z,19.52
2019-05-23T08:32:44.273Z,19.64
2019-05-23T08:35:18.769Z,20.12
2019-05-23T08:37:53.286Z,20.12
2019-05-23T08:40:29.675Z,20.78
2019-05-23T08:43:04.778Z,20.74
2019-05-23T08:45:38.814Z,20.25
2019-05-23T08:48:13.479Z,21.11
2019-05-23T08:50:51.270Z,20.49
2019-05-23T08:53:26.463Z,19.90
2019-05-23T08:56:02.019Z,20.78
2019-05-23T08:58:37.251Z,20.73
2019-05-23T09:01:11.946Z,20.73
2019-05-23T09:03:47.557Z,21.08
2019-05-23T09:06:22.247Z,21.08
2019-05-23T09:08:56.951Z,20.25
2019-05-23T09:11:31.282Z,20.79
2019-05-23T09:14:08.379Z,22.34
2019-05-23T09:16:43.289Z,23.51
2019-05-23T09:19:18.280Z,24.56
2019-05-23T09:21:57.814Z,25.38
2019-05-23T09:24:30.831Z,24.81
2019-05-23T09:27:06.956Z,23.95
2019-05-23T09:29:41.282Z,24.58
2019-05-23T09:32:15.959Z,25.48
2019-05-23T09:34:50.279Z,25.97
2019-05-23T09:37:25.308Z,26.06
2019-05-23T09:40:00.406Z,26.46
2019-05-23T09:42:35.285Z,26.33
2019-05-23T09:45:10.645Z,24.65
2019-05-23T09:47:44.272Z,23.74
2019-05-23T09:50:21.389Z,25.18
2019-05-23T09:52:56.615Z,25.42
2019-05-23T09:55:32.337Z,25.95
2019-05-23T09:58:06.948Z,25.88
2019-05-23T10:00:42.272Z,27.05
2019-05-23T10:03:16.893Z,27.05
2019-05-23T10:05:51.729Z,27.16
2019-05-23T10:08:26.634Z,26.96
2019-05-23T10:11:01.575Z,26.87
2019-05-23T10:13:39.448Z,27.10
2019-05-23T10:16:12.448Z,27.07
2019-05-23T10:18:47.316Z,26.44
2019-05-23T10:21:21.942Z,26.22
2019-05-23T10:23:56.658Z,27.07
2019-05-23T10:26:31.439Z,27.07
2019-05-23T10:29:06.580Z,27.47
2019-05-23T10:31:42.304Z,26.82
2019-05-23T10:34:16.939Z,27.15
2019-05-23T10:36:51.726Z,27.27
2019-05-23T10:39:27.972Z,27.09
2019-05-23T10:42:02.812Z,27.34
2019-05-23T10:44:37.307Z,27.87
2019-05-23T10:47:12.938Z,28.18
2019-05-23T10:49:47.766Z,28.46
2019-05-23T10:52:21.104Z,29.10
2019-05-23T10:54:55.597Z,29.01
2019-05-23T10:57:30.593Z,29.23
2019-05-23T11:00:05.700Z,29.67
2019-05-23T11:02:40.848Z,29.75
2019-05-23T11:05:17.288Z,29.35
2019-05-23T11:07:51.944Z,29.10
2019-05-23T11:10:27.380Z,29.38
2019-05-23T11:13:01.951Z,29.61
2019-05-23T11:15:37.294Z,29.80
2019-05-23T11:18:12.300Z,29.80
2019-05-23T11:20:47.085Z,30.03
2019-05-23T11:23:26.410Z,30.68
2019-05-23T11:26:02.355Z,30.68
2019-05-23T11:28:38.281Z,31.03
2019-05-23T11:31:14.091Z,30.74
2019-05-23T11:33:48.735Z,31.79
2019-05-23T11:36:35.043Z,31.51
2019-05-23T11:38:57.560Z,31.79
2019-05-23T11:41:32.293Z,31.79
2019-05-23T11:44:58.373Z,31.85
2019-05-23T11:47:34.278Z,32.24
2019-05-23T11:50:11.859Z,33.43
2019-05-23T11:52:46.303Z,33.43
2019-05-23T11:55:20.959Z,33.11
2019-05-23T11:57:56.286Z,33.35
2019-05-23T12:01:34.419Z,31.54
2019-05-23T12:04:14.316Z,32.55
2019-05-23T12:07:06.603Z,33.12
2019-05-23T12:09:42.279Z,33.37
2019-05-23T12:12:17.491Z,33.82
2019-05-23T12:14:52.273Z,33.25
2019-05-23T12:17:29.428Z,33.56
2019-05-23T12:20:04.474Z,34.68
2019-05-23T12:22:38.075Z,34.68
2019-05-23T12:25:23.326Z,34.96
2019-05-23T12:27:50.678Z,34.76
2019-05-23T12:30:25.714Z,34.76
2019-05-23T12:32:59.050Z,35.07
2019-05-23T12:35:33.750Z,35.50
2019-05-23T12:38:07.656Z,35.69
2019-05-23T12:40:42.279Z,35.28
2019-05-23T12:43:16.733Z,34.55
2019-05-23T12:45:50.349Z,33.78
2019-05-23T12:48:52.424Z,34.85
2019-05-23T12:51:31.259Z,34.85
2019-05-23T12:54:06.958Z,35.24
2019-05-23T12:56:42.267Z,35.46
2019-05-23T12:59:17.274Z,35.24
2019-05-23T13:01:54.377Z,35.24
2019-05-23T13:04:29.278Z,35.13
2019-05-23T13:07:04.865Z,34.85
2019-05-23T13:09:39.403Z,34.39
2019-05-23T13:12:16.411Z,34.39
2019-05-23T13:14:53.540Z,34.48
2019-05-23T13:17:27.355Z,34.48
2019-05-23T13:20:02.265Z,34.66
2019-05-23T13:22:37.278Z,34.66
2019-05-23T13:25:14.268Z,34.65
2019-05-23T13:27:48.790Z,34.38
2019-05-23T13:30:22.541Z,34.03
2019-05-23T13:32:57.702Z,33.61
2019-05-23T13:35:32.295Z,33.11
2019-05-23T13:38:07.282Z,33.23
2019-05-23T13:40:42.280Z,33.29
2019-05-23T13:43:16.916Z,32.99
2019-05-23T13:45:51.662Z,31.98
2019-05-23T13:48:28.299Z,31.54
2019-05-23T13:51:02.888Z,31.17
2019-05-23T13:53:38.269Z,30.92
2019-05-23T13:56:12.922Z,30.92
2019-05-23T13:58:49.094Z,31.44
2019-05-23T14:01:23.668Z,31.73
2019-05-23T14:03:57.085Z,31.73
2019-05-23T14:06:31.792Z,32.03
2019-05-23T14:09:25.902Z,32.07
2019-05-23T14:12:20.195Z,32.23
2019-05-23T14:14:35.280Z,32.35
2019-05-23T14:17:20.460Z,31.91
2019-05-23T14:19:55.285Z,32.13
2019-05-23T14:22:31.361Z,31.40
2019-05-23T14:25:07.326Z,31.40
2019-05-23T14:27:53.896Z,31.81
2019-05-23T14:30:45.664Z,31.38
2019-05-23T14:33:31.287Z,31.08
2019-05-23T14:36:08.766Z,31.26
2019-05-23T14:38:44.489Z,31.26
2019-05-23T14:41:19.314Z,31.34
2019-05-23T14:43:54.565Z,30.83
2019-05-23T14:46:32.654Z,31.22
2019-05-23T14:49:12.803Z,31.51
2019-05-23T14:52:06.097Z,32.37
2019-05-23T14:54:43.627Z,33.10
2019-05-23T14:57:18.738Z,33.10
2019-05-23T14:59:52.270Z,31.12
2019-05-23T15:02:27.139Z,30.27
2019-05-23T15:05:01.757Z,29.63
2019-05-23T15:07:36.281Z,29.71
2019-05-23T15:10:11.310Z,30.08
2019-05-23T15:12:45.920Z,29.97
2019-05-23T15:15:20.487Z,29.61
2019-05-23T15:17:55.255Z,29.49
2019-05-23T15:20:30.330Z,29.32
2019-05-23T15:23:05.282Z,28.70
2019-05-23T15:25:39.989Z,28.06
2019-05-23T15:28:14.657Z,27.50
2019-05-23T15:30:49.387Z,27.28
2019-05-23T15:33:24.280Z,26.92
2019-05-23T15:35:59.116Z,26.37
2019-05-23T15:38:33.700Z,25.95
2019-05-23T15:41:07.361Z,25.47
2019-05-23T15:43:42.279Z,25.16
2019-05-23T15:46:16.896Z,24.88
2019-05-23T15:48:51.392Z,24.47
2019-05-23T15:51:31.481Z,24.17
2019-05-23T15:54:11.687Z,24.21
2019-05-23T15:57:02.306Z,24.33
2019-05-23T16:00:01.204Z,24.17
2019-05-23T16:02:42.355Z,24.17
2019-05-23T16:05:18.283Z,24.05
2019-05-23T16:07:53.256Z,24.19
2019-05-23T16:10:29.259Z,24.01
2019-05-23T16:13:04.264Z,23.98
2019-05-23T16:15:39.707Z,23.58
2019-05-23T16:18:12.894Z,23.58
2019-05-23T16:20:47.322Z,23.52
2019-05-23T16:23:21.956Z,23.20
2019-05-23T16:25:56.742Z,23.20
2019-05-23T16:28:31.385Z,23.07
2019-05-23T16:31:06.281Z,23.07
2019-05-23T16:33:41.913Z,22.92
2019-05-23T16:36:17.001Z,22.93
2019-05-23T16:38:51.737Z,22.88
2019-05-23T16:41:27.589Z,22.85
2019-05-23T16:44:01.956Z,22.77
2019-05-23T16:46:36.671Z,22.68
2019-05-23T16:49:11.633Z,22.56
2019-05-23T16:51:46.180Z,22.44
2019-05-23T16:54:23.291Z,22.45
2019-05-23T16:57:17.294Z,22.34
2019-05-23T17:00:02.351Z,22.26
2019-05-23T17:02:48.290Z,22.26
2019-05-23T17:05:41.401Z,22.15
2019-05-23T17:08:34.289Z,22.10
2019-05-23T17:11:29.740Z,22.11
2019-05-23T17:14:18.539Z,21.98
2019-05-23T17:17:13.366Z,21.98
2019-05-23T17:20:18.975Z,21.91
2019-05-23T17:23:00.333Z,21.91
2019-05-23T17:25:44.576Z,21.90
2019-05-23T17:28:25.520Z,21.78
2019-05-23T17:31:05.300Z,21.78
2019-05-23T17:33:40.143Z,21.78
2019-05-23T17:36:14.649Z,21.71
2019-05-23T17:38:49.288Z,21.63
2019-05-23T17:41:24.949Z,21.58
2019-05-23T17:43:59.578Z,21.43
2019-05-23T17:46:34.333Z,21.43
2019-05-23T17:49:08.960Z,21.36
2019-05-23T17:51:43.353Z,21.29
2019-05-23T17:54:18.276Z,21.22
2019-05-23T17:56:53.287Z,21.15
2019-05-23T17:59:29.323Z,21.06
2019-05-23T18:02:05.284Z,21.06
2019-05-23T18:04:39.711Z,20.98
2019-05-23T18:07:13.275Z,20.91
2019-05-23T18:09:47.722Z,20.84
2019-05-23T18:12:22.294Z,20.72
2019-05-23T18:14:58.305Z,20.72
2019-05-23T18:17:33.439Z,20.63
2019-05-23T18:20:09.103Z,20.59
2019-05-23T18:22:44.287Z,20.53
2019-05-23T18:25:19.804Z,20.47
2019-05-23T18:27:52.874Z,20.42
2019-05-23T18:30:39.634Z,20.35
2019-05-23T18:33:17.293Z,20.16
2019-05-23T18:35:53.283Z,20.16
2019-05-23T18:38:28.143Z,20.11
2019-05-23T18:41:08.784Z,20.04
2019-05-23T18:43:40.575Z,19.97
2019-05-23T18:46:26.303Z,19.86
2019-05-23T18:49:01.686Z,19.74
2019-05-23T18:51:34.821Z,19.63
2019-05-23T18:54:09.283Z,19.56
2019-05-23T18:56:43.792Z,19.45
2019-05-23T18:59:17.299Z,19.37
2019-05-23T19:01:51.763Z,19.16
2019-05-23T19:04:24.662Z,19.16
2019-05-23T19:06:59.366Z,18.99
2019-05-23T19:09:34.075Z,18.99
2019-05-23T19:12:09.957Z,18.78
2019-05-23T19:14:44.577Z,18.78
2019-05-23T19:17:18.909Z,18.67
2019-05-23T19:19:53.376Z,18.57
2019-05-23T19:22:28.294Z,18.49
2019-05-23T19:25:03.594Z,18.38
2019-05-23T19:27:38.291Z,18.29
2019-05-23T19:30:14.322Z,18.23
2019-05-23T19:32:49.066Z,18.14
2019-05-23T19:35:23.962Z,17.98
2019-05-23T19:37:58.816Z,17.98
2019-05-23T19:40:33.777Z,17.91
2019-05-23T19:43:08.118Z,17.87
2019-05-23T19:45:42.953Z,17.73
2019-05-23T19:48:17.956Z,17.73
2019-05-23T19:50:53.307Z,17.64
2019-05-23T19:53:28.043Z,17.55
2019-05-23T19:56:02.981Z,17.42
2019-05-23T19:58:37.691Z,17.42
2019-05-23T20:01:12.667Z,17.34
2019-05-23T20:03:48.286Z,17.30
2019-05-23T20:06:22.871Z,17.24
2019-05-23T20:08:58.262Z,17.19
2019-05-23T20:11:33.264Z,17.25
2019-05-23T20:14:07.790Z,17.24
2019-05-23T20:16:40.790Z,17.15
2019-05-23T20:19:15.286Z,17.11
2019-05-23T20:21:49.892Z,17.06
2019-05-23T20:24:22.871Z,16.91
2019-05-23T20:26:57.129Z,16.91
2019-05-23T20:29:31.734Z,16.85
2019-05-23T20:32:07.952Z,16.84
2019-05-23T20:34:42.358Z,16.78
2019-05-23T20:37:17.243Z,16.73
2019-05-23T20:39:51.795Z,16.64
2019-05-23T20:42:24.688Z,16.59
2019-05-23T20:44:59.871Z,16.51
2019-05-23T20:48:13.585Z,16.48
2019-05-23T20:50:48.323Z,16.44
2019-05-23T20:53:22.883Z,16.40
2019-05-23T20:55:55.800Z,16.36
2019-05-23T20:58:29.943Z,16.30
2019-05-23T21:01:27.284Z,16.28
2019-05-23T21:04:02.286Z,16.22
2019-05-23T21:06:37.289Z,16.15
2019-05-23T21:09:15.574Z,16.15
2019-05-23T21:11:48.877Z,16.10
2019-05-23T21:14:23.429Z,16.11
2019-05-23T21:31:28.360Z,15.98
2019-05-23T21:36:31.406Z,15.83
2019-05-23T21:39:08.501Z,15.83
2019-05-23T21:41:42.960Z,15.77
2019-05-23T21:44:17.305Z,15.75
2019-05-23T21:46:52.956Z,15.76
2019-05-23T21:49:27.955Z,15.73
2019-05-23T21:52:02.651Z,15.70
2019-05-23T21:54:37.110Z,15.68
2019-05-23T21:57:11.762Z,15.59
2019-05-23T21:59:44.795Z,15.59
2019-05-23T22:02:31.288Z,15.58
2019-05-23T22:05:11.676Z,15.56
2019-05-23T22:07:46.946Z,15.54
2019-05-23T22:10:21.689Z,15.46
2019-05-23T22:13:04.509Z,15.45
2019-05-23T22:15:39.357Z,15.44
2019-05-23T22:18:14.113Z,15.41
2019-05-23T22:20:48.651Z,15.42
2019-05-23T22:23:23.261Z,15.42
2019-05-23T22:25:57.730Z,15.42
2019-05-23T22:28:32.289Z,15.43
2019-05-23T22:31:07.282Z,15.43
2019-05-23T22:33:45.116Z,15.40
2019-05-23T22:36:20.274Z,15.39
2019-05-23T22:38:54.633Z,15.35
2019-05-23T22:41:29.295Z,15.33
2019-05-23T22:44:03.883Z,15.32
2019-05-23T22:46:37.017Z,15.32
2019-05-23T22:49:09.858Z,15.28
2019-05-23T22:51:44.207Z,15.28
2019-05-23T22:54:18.787Z,15.31
2019-05-23T22:56:51.815Z,15.27
2019-05-23T22:59:26.120Z,15.27
2019-05-23T23:03:29.371Z,15.27
2019-05-23T23:06:04.440Z,15.20
2019-05-23T23:08:39.282Z,15.20
2019-05-23T23:11:13.732Z,15.15
2019-05-23T23:13:48.081Z,15.21
2019-05-23T23:16:22.505Z,15.14
2019-05-23T23:18:57.891Z,15.14
2019-05-23T23:21:32.290Z,15.19
2019-05-23T23:24:07.691Z,15.12
2019-05-23T23:26:42.113Z,15.08
2019-05-23T23:29:16.876Z,15.04
2019-05-23T23:31:49.865Z,15.04
2019-05-23T23:34:24.117Z,15.02
2019-05-23T23:36:58.667Z,14.97
2019-05-23T23:39:32.940Z,14.94
2019-05-23T23:42:07.304Z,14.89
2019-05-23T23:44:40.451Z,14.89
2019-05-23T23:47:32.308Z,14.83
2019-05-23T23:50:24.292Z,14.84
2019-05-23T23:53:16.275Z,14.83
2019-05-23T23:56:07.937Z,14.82
2019-05-23T23:58:41.131Z,14.77
